createdAt,value
2023-03-01T00:01:45.488Z,2.9
2023-03-01T00:31:56.185Z,3
2023-03-01T01:01:45.851Z,2.6
2023-03-01T01:31:47.335Z,2.8
2023-03-01T02:01:43.206Z,2.9
2023-03-01T02:31:48.456Z,2.9
2023-03-01T03:01:42.823Z,3
2023-03-01T03:31:40.247Z,3.1
2023-03-01T04:01:39.524Z,3.2
2023-03-01T04:31:38.445Z,2.7
2023-03-01T05:01:37.775Z,2.9
2023-03-01T05:31:36.306Z,2.5
2023-03-01T06:01:35.990Z,2.8
2023-03-01T06:31:34.185Z,2.8
2023-03-01T07:01:33.236Z,2.8
2023-03-01T07:31:33.522Z,3.3
2023-03-01T08:01:32.197Z,3.2
2023-03-01T08:31:31.426Z,4.1
2023-03-01T09:01:29.633Z,5
2023-03-01T09:31:29.536Z,5.9
2023-03-01T10:01:39.598Z,7.7
2023-03-01T10:31:38.617Z,8
2023-03-01T11:01:36.848Z,7.3
2023-03-01T11:31:31.535Z,7.9
2023-03-01T12:01:39.747Z,8.3
2023-03-01T12:31:46.245Z,8.8
2023-03-01T13:01:39.502Z,8.8
2023-03-01T13:31:46.472Z,10.1
2023-03-01T14:01:37.769Z,12.4
2023-03-01T14:31:52.679Z,10.6
2023-03-01T15:01:39.563Z,8.4
2023-03-01T15:31:41.331Z,6.6
2023-03-01T16:01:43.868Z,6.4
2023-03-01T16:31:43.252Z,5.7
2023-03-01T17:01:44.225Z,6.6
2023-03-01T17:31:45.034Z,7.1
2023-03-01T18:01:46.314Z,6.1
2023-03-01T18:31:46.786Z,6.6
2023-03-01T19:01:46.618Z,6.7
2023-03-01T19:31:46.654Z,6.7
2023-03-01T20:01:46.603Z,6.7
2023-03-01T20:31:46.759Z,6.7
2023-03-01T21:01:46.693Z,7.4
2023-03-01T21:31:48.149Z,7.9
2023-03-01T22:01:49.676Z,8.7
2023-03-01T22:31:46.692Z,9.3
2023-03-01T23:01:48.199Z,9.6
2023-03-01T23:31:46.172Z,10.1
